sensor_id;sensor_type;location;lat;lon;timestamp;pressure;altitude;pressure_sealevel;temperature;humidity
78317;BME280;67572;50.930;18.276;2023-12-07T00:02:30;99115.72;;;-1.77;87.45
78317;BME280;67572;50.930;18.276;2023-12-07T00:05:33;99112.91;;;-1.66;87.04
78317;BME280;67572;50.930;18.276;2023-12-07T00:08:38;99110.31;;;-1.68;86.90
78317;BME280;67572;50.930;18.276;2023-12-07T00:11:42;99120.72;;;-1.66;86.73
78317;BME280;67572;50.930;18.276;2023-12-07T00:14:46;99112.72;;;-1.57;86.54
78317;BME280;67572;50.930;18.276;2023-12-07T00:17:49;99120.72;;;-1.68;86.79
78317;BME280;67572;50.930;18.276;2023-12-07T00:20:53;99118.25;;;-1.72;86.93
78317;BME280;67572;50.930;18.276;2023-12-07T00:23:59;99129.72;;;-1.82;86.82
78317;BME280;67572;50.930;18.276;2023-12-07T00:27:03;99117.47;;;-1.77;87.28
78317;BME280;67572;50.930;18.276;2023-12-07T00:30:13;99120.88;;;-1.74;87.24
78317;BME280;67572;50.930;18.276;2023-12-07T00:33:18;99119.22;;;-1.78;87.02
78317;BME280;67572;50.930;18.276;2023-12-07T00:36:25;99129.72;;;-1.82;87.40
78317;BME280;67572;50.930;18.276;2023-12-07T00:39:30;99125.06;;;-1.67;87.03
78317;BME280;67572;50.930;18.276;2023-12-07T00:42:36;99124.75;;;-1.50;87.14
78317;BME280;67572;50.930;18.276;2023-12-07T00:45:41;99132.88;;;-1.67;86.74
78317;BME280;67572;50.930;18.276;2023-12-07T00:48:45;99132.16;;;-1.73;87.33
78317;BME280;67572;50.930;18.276;2023-12-07T00:51:49;99133.84;;;-1.71;87.20
78317;BME280;67572;50.930;18.276;2023-12-07T00:54:55;99131.78;;;-1.55;87.03
78317;BME280;67572;50.930;18.276;2023-12-07T00:58:13;99146.94;;;-1.75;87.15
78317;BME280;67572;50.930;18.276;2023-12-07T01:01:18;99149.47;;;-1.71;86.96
78317;BME280;67572;50.930;18.276;2023-12-07T01:04:22;99141.50;;;-1.63;86.92
78317;BME280;67572;50.930;18.276;2023-12-07T01:07:28;99146.19;;;-1.82;87.19
78317;BME280;67572;50.930;18.276;2023-12-07T01:10:35;99151.56;;;-1.88;87.48
78317;BME280;67572;50.930;18.276;2023-12-07T01:13:40;99150.31;;;-1.69;87.29
78317;BME280;67572;50.930;18.276;2023-12-07T01:16:44;99146.94;;;-1.75;87.51
78317;BME280;67572;50.930;18.276;2023-12-07T01:19:49;99147.94;;;-1.81;87.34
78317;BME280;67572;50.930;18.276;2023-12-07T01:22:53;99148.38;;;-2.05;87.84
78317;BME280;67572;50.930;18.276;2023-12-07T01:25:59;99160.25;;;-1.90;87.93
78317;BME280;67572;50.930;18.276;2023-12-07T01:29:05;99155.94;;;-1.91;87.89
78317;BME280;67572;50.930;18.276;2023-12-07T01:32:09;99153.13;;;-1.79;87.16
78317;BME280;67572;50.930;18.276;2023-12-07T01:35:14;99159.78;;;-1.64;86.87
78317;BME280;67572;50.930;18.276;2023-12-07T01:38:20;99154.06;;;-1.83;86.78
78317;BME280;67572;50.930;18.276;2023-12-07T01:41:26;99150.78;;;-1.94;87.10
78317;BME280;67572;50.930;18.276;2023-12-07T01:44:31;99159.34;;;-1.86;86.93
78317;BME280;67572;50.930;18.276;2023-12-07T01:47:36;99155.91;;;-1.88;86.78
78317;BME280;67572;50.930;18.276;2023-12-07T01:50:41;99159.22;;;-1.82;86.82
78317;BME280;67572;50.930;18.276;2023-12-07T01:53:47;99152.31;;;-1.83;86.42
78317;BME280;67572;50.930;18.276;2023-12-07T01:56:55;99149.69;;;-1.81;86.54
78317;BME280;67572;50.930;18.276;2023-12-07T01:59:59;99154.00;;;-1.80;86.31
78317;BME280;67572;50.930;18.276;2023-12-07T02:03:06;99155.03;;;-1.89;86.16
78317;BME280;67572;50.930;18.276;2023-12-07T02:06:11;99152.19;;;-1.77;86.36
78317;BME280;67572;50.930;18.276;2023-12-07T02:09:18;99149.91;;;-1.93;86.55
78317;BME280;67572;50.930;18.276;2023-12-07T02:12:24;99152.59;;;-1.98;87.00
78317;BME280;67572;50.930;18.276;2023-12-07T02:15:32;99157.78;;;-1.98;87.44
78317;BME280;67572;50.930;18.276;2023-12-07T02:18:41;99156.03;;;-1.96;86.97
78317;BME280;67572;50.930;18.276;2023-12-07T02:21:54;99162.06;;;-1.94;87.34
78317;BME280;67572;50.930;18.276;2023-12-07T02:25:05;99164.44;;;-1.82;87.01
78317;BME280;67572;50.930;18.276;2023-12-07T02:28:13;99173.22;;;-1.86;86.81
78317;BME280;67572;50.930;18.276;2023-12-07T02:31:17;99169.03;;;-1.94;87.21
78317;BME280;67572;50.930;18.276;2023-12-07T02:34:22;99172.50;;;-1.94;86.68
78317;BME280;67572;50.930;18.276;2023-12-07T02:37:35;99173.38;;;-1.95;86.73
78317;BME280;67572;50.930;18.276;2023-12-07T02:40:44;99176.13;;;-2.04;87.03
78317;BME280;67572;50.930;18.276;2023-12-07T02:43:52;99175.34;;;-2.08;87.34
78317;BME280;67572;50.930;18.276;2023-12-07T02:46:58;99171.81;;;-2.04;87.33
78317;BME280;67572;50.930;18.276;2023-12-07T02:50:06;99183.16;;;-2.08;87.68
78317;BME280;67572;50.930;18.276;2023-12-07T02:53:11;99185.44;;;-1.88;87.82
78317;BME280;67572;50.930;18.276;2023-12-07T02:56:16;99180.84;;;-1.75;86.83
78317;BME280;67572;50.930;18.276;2023-12-07T02:59:22;99189.50;;;-1.73;86.29
78317;BME280;67572;50.930;18.276;2023-12-07T03:02:28;99184.69;;;-1.96;86.35
78317;BME280;67572;50.930;18.276;2023-12-07T03:05:33;99185.69;;;-2.03;86.91
78317;BME280;67572;50.930;18.276;2023-12-07T03:08:38;99185.03;;;-2.16;87.48
78317;BME280;67572;50.930;18.276;2023-12-07T03:11:43;99183.22;;;-2.11;87.61
78317;BME280;67572;50.930;18.276;2023-12-07T03:14:49;99189.97;;;-2.01;86.97
78317;BME280;67572;50.930;18.276;2023-12-07T03:17:54;99183.22;;;-2.11;86.96
78317;BME280;67572;50.930;18.276;2023-12-07T03:21:01;99187.72;;;-2.22;87.97
78317;BME280;67572;50.930;18.276;2023-12-07T03:24:08;99185.91;;;-2.17;87.66
78317;BME280;67572;50.930;18.276;2023-12-07T03:27:13;99184.19;;;-2.18;87.26
78317;BME280;67572;50.930;18.276;2023-12-07T03:30:20;99190.06;;;-2.07;87.38
78317;BME280;67572;50.930;18.276;2023-12-07T03:33:25;99192.56;;;-1.99;87.01
78317;BME280;67572;50.930;18.276;2023-12-07T03:36:30;99193.34;;;-1.94;87.01
78317;BME280;67572;50.930;18.276;2023-12-07T03:39:37;99197.84;;;-2.02;86.73
78317;BME280;67572;50.930;18.276;2023-12-07T03:42:41;99206.44;;;-1.99;87.08
78317;BME280;67572;50.930;18.276;2023-12-07T03:46:03;99199.56;;;-2.03;86.78
78317;BME280;67572;50.930;18.276;2023-12-07T03:49:09;99205.09;;;-2.22;87.11
78317;BME280;67572;50.930;18.276;2023-12-07T03:52:14;99209.44;;;-2.21;87.29
78317;BME280;67572;50.930;18.276;2023-12-07T03:55:19;99215.34;;;-2.10;86.97
78317;BME280;67572;50.930;18.276;2023-12-07T03:58:24;99220.34;;;-2.00;87.42
78317;BME280;67572;50.930;18.276;2023-12-07T04:01:30;99224.72;;;-2.00;87.16
78317;BME280;67572;50.930;18.276;2023-12-07T04:04:35;99224.88;;;-2.09;86.90
78317;BME280;67572;50.930;18.276;2023-12-07T04:07:41;99228.28;;;-2.06;86.90
78317;BME280;67572;50.930;18.276;2023-12-07T04:10:46;99230.72;;;-1.95;86.55
78317;BME280;67572;50.930;18.276;2023-12-07T04:13:52;99233.72;;;-2.21;87.18
78317;BME280;67572;50.930;18.276;2023-12-07T04:16:58;99233.31;;;-1.97;86.94
78317;BME280;67572;50.930;18.276;2023-12-07T04:20:04;99229.09;;;-2.02;87.52
78317;BME280;67572;50.930;18.276;2023-12-07T04:23:10;99238.69;;;-2.06;87.09
78317;BME280;67572;50.930;18.276;2023-12-07T04:26:15;99234.22;;;-1.96;87.12
78317;BME280;67572;50.930;18.276;2023-12-07T04:29:20;99234.25;;;-1.99;87.35
78317;BME280;67572;50.930;18.276;2023-12-07T04:32:27;99242.00;;;-1.94;87.13
78317;BME280;67572;50.930;18.276;2023-12-07T04:35:31;99256.56;;;-1.81;86.52
78317;BME280;67572;50.930;18.276;2023-12-07T04:38:42;99244.38;;;-1.81;86.51
78317;BME280;67572;50.930;18.276;2023-12-07T04:41:49;99246.03;;;-1.77;86.55
78317;BME280;67572;50.930;18.276;2023-12-07T04:44:56;99243.66;;;-1.89;86.41
78317;BME280;67572;50.930;18.276;2023-12-07T04:48:02;99247.81;;;-1.79;86.62
78317;BME280;67572;50.930;18.276;2023-12-07T04:51:08;99255.66;;;-1.80;86.15
78317;BME280;67572;50.930;18.276;2023-12-07T04:54:13;99251.56;;;-1.97;86.36
78317;BME280;67572;50.930;18.276;2023-12-07T04:57:22;99254.66;;;-1.73;86.75
78317;BME280;67572;50.930;18.276;2023-12-07T05:00:26;99263.56;;;-1.86;86.26
78317;BME280;67572;50.930;18.276;2023-12-07T05:03:34;99261.50;;;-1.68;85.46
78317;BME280;67572;50.930;18.276;2023-12-07T05:06:38;99259.56;;;-1.55;85.50
78317;BME280;67572;50.930;18.276;2023-12-07T05:09:44;99269.66;;;-1.38;85.48
78317;BME280;67572;50.930;18.276;2023-12-07T05:12:49;99274.34;;;-1.55;85.27
78317;BME280;67572;50.930;18.276;2023-12-07T05:15:54;99275.13;;;-1.50;85.09
78317;BME280;67572;50.930;18.276;2023-12-07T05:19:00;99276.91;;;-1.54;84.95
78317;BME280;67572;50.930;18.276;2023-12-07T05:22:06;99284.72;;;-1.54;85.30
78317;BME280;67572;50.930;18.276;2023-12-07T05:25:11;99285.66;;;-1.56;85.48
78317;BME280;67572;50.930;18.276;2023-12-07T05:28:18;99280.47;;;-1.59;85.05
78317;BME280;67572;50.930;18.276;2023-12-07T05:31:23;99289.97;;;-1.55;84.99
78317;BME280;67572;50.930;18.276;2023-12-07T05:34:32;99294.38;;;-1.57;85.11
78317;BME280;67572;50.930;18.276;2023-12-07T05:37:37;99288.19;;;-1.53;84.89
78317;BME280;67572;50.930;18.276;2023-12-07T05:40:41;99295.84;;;-1.43;84.97
78317;BME280;67572;50.930;18.276;2023-12-07T05:43:46;99302.25;;;-1.62;85.33
78317;BME280;67572;50.930;18.276;2023-12-07T05:46:52;99295.41;;;-1.69;85.81
78317;BME280;67572;50.930;18.276;2023-12-07T05:49:59;99299.88;;;-1.76;85.79
78317;BME280;67572;50.930;18.276;2023-12-07T05:53:06;99291.88;;;-1.63;85.88
78317;BME280;67572;50.930;18.276;2023-12-07T05:56:12;99302.13;;;-1.54;85.97
78317;BME280;67572;50.930;18.276;2023-12-07T05:59:16;99295.38;;;-1.68;85.77
78317;BME280;67572;50.930;18.276;2023-12-07T06:02:21;99303.06;;;-1.57;85.61
78317;BME280;67572;50.930;18.276;2023-12-07T06:05:29;99300.44;;;-1.57;85.83
78317;BME280;67572;50.930;18.276;2023-12-07T06:08:34;99300.28;;;-1.48;85.61
78317;BME280;67572;50.930;18.276;2023-12-07T06:11:39;99300.59;;;-1.66;85.42
78317;BME280;67572;50.930;18.276;2023-12-07T06:14:44;99306.66;;;-1.64;85.56
78317;BME280;67572;50.930;18.276;2023-12-07T06:17:49;99314.41;;;-1.61;85.95
78317;BME280;67572;50.930;18.276;2023-12-07T06:20:55;99321.06;;;-1.45;85.51
78317;BME280;67572;50.930;18.276;2023-12-07T06:24:00;99315.91;;;-1.48;85.32
78317;BME280;67572;50.930;18.276;2023-12-07T06:27:05;99313.00;;;-1.31;85.11
78317;BME280;67572;50.930;18.276;2023-12-07T06:30:10;99313.16;;;-1.38;85.13
78317;BME280;67572;50.930;18.276;2023-12-07T06:33:15;99317.53;;;-1.41;85.28
78317;BME280;67572;50.930;18.276;2023-12-07T06:36:22;99321.03;;;-1.42;85.24
78317;BME280;67572;50.930;18.276;2023-12-07T06:39:29;99314.84;;;-1.34;85.35
78317;BME280;67572;50.930;18.276;2023-12-07T06:42:33;99329.63;;;-1.35;85.24
78317;BME280;67572;50.930;18.276;2023-12-07T06:45:38;99328.63;;;-1.28;85.28
78317;BME280;67572;50.930;18.276;2023-12-07T06:48:43;99332.84;;;-1.21;85.09
78317;BME280;67572;50.930;18.276;2023-12-07T06:51:50;99340.78;;;-1.27;84.95
78317;BME280;67572;50.930;18.276;2023-12-07T06:54:55;99345.16;;;-1.30;85.45
78317;BME280;67572;50.930;18.276;2023-12-07T06:58:01;99352.06;;;-1.26;85.43
78317;BME280;67572;50.930;18.276;2023-12-07T07:01:06;99346.69;;;-1.17;85.08
78317;BME280;67572;50.930;18.276;2023-12-07T07:04:10;99345.78;;;-1.16;85.09
78317;BME280;67572;50.930;18.276;2023-12-07T07:07:17;99347.88;;;-1.36;85.15
78317;BME280;67572;50.930;18.276;2023-12-07T07:10:22;99342.72;;;-1.40;85.69
78317;BME280;67572;50.930;18.276;2023-12-07T07:13:28;99352.91;;;-1.24;85.34
78317;BME280;67572;50.930;18.276;2023-12-07T07:16:33;99352.84;;;-1.21;85.42
78317;BME280;67572;50.930;18.276;2023-12-07T07:19:38;99350.25;;;-1.23;84.78
78317;BME280;67572;50.930;18.276;2023-12-07T07:22:44;99353.59;;;-1.15;84.77
78317;BME280;67572;50.930;18.276;2023-12-07T07:25:49;99360.44;;;-1.09;84.85
78317;BME280;67572;50.930;18.276;2023-12-07T07:28:54;99368.91;;;-0.95;84.07
78317;BME280;67572;50.930;18.276;2023-12-07T07:32:01;99356.78;;;-0.99;84.43
78317;BME280;67572;50.930;18.276;2023-12-07T07:35:06;99362.81;;;-0.95;84.32
78317;BME280;67572;50.930;18.276;2023-12-07T07:38:13;99370.44;;;-0.83;83.78
78317;BME280;67572;50.930;18.276;2023-12-07T07:41:18;99370.53;;;-0.89;83.73
78317;BME280;67572;50.930;18.276;2023-12-07T07:44:23;99368.06;;;-0.97;83.82
78317;BME280;67572;50.930;18.276;2023-12-07T07:47:28;99373.81;;;-0.79;83.67
78317;BME280;67572;50.930;18.276;2023-12-07T07:50:33;99371.25;;;-0.81;83.90
78317;BME280;67572;50.930;18.276;2023-12-07T07:53:40;99370.56;;;-0.91;83.68
78317;BME280;67572;50.930;18.276;2023-12-07T07:56:46;99372.03;;;-0.77;83.69
78317;BME280;67572;50.930;18.276;2023-12-07T07:59:51;99384.19;;;-0.76;83.53
78317;BME280;67572;50.930;18.276;2023-12-07T08:02:56;99386.91;;;-0.81;83.70
78317;BME280;67572;50.930;18.276;2023-12-07T08:06:01;99384.28;;;-0.79;83.50
78317;BME280;67572;50.930;18.276;2023-12-07T08:09:07;99384.09;;;-0.70;83.21
78317;BME280;67572;50.930;18.276;2023-12-07T08:12:14;99385.81;;;-0.68;83.12
78317;BME280;67572;50.930;18.276;2023-12-07T08:15:18;99381.13;;;-0.52;83.24
78317;BME280;67572;50.930;18.276;2023-12-07T08:18:24;99384.59;;;-0.51;82.77
78317;BME280;67572;50.930;18.276;2023-12-07T08:21:30;99386.19;;;-0.43;82.73
78317;BME280;67572;50.930;18.276;2023-12-07T08:24:38;99388.94;;;-0.50;83.01
78317;BME280;67572;50.930;18.276;2023-12-07T08:27:43;99392.56;;;-0.58;82.88
78317;BME280;67572;50.930;18.276;2023-12-07T08:30:49;99402.03;;;-0.52;83.40
78317;BME280;67572;50.930;18.276;2023-12-07T08:33:55;99407.03;;;-0.41;83.07
78317;BME280;67572;50.930;18.276;2023-12-07T08:37:00;99407.63;;;-0.27;82.34
78317;BME280;67572;50.930;18.276;2023-12-07T08:40:10;99410.16;;;-0.22;82.11
78317;BME280;67572;50.930;18.276;2023-12-07T08:43:20;99415.69;;;-0.39;82.74
78317;BME280;67572;50.930;18.276;2023-12-07T08:46:26;99417.25;;;-0.31;82.96
78317;BME280;67572;50.930;18.276;2023-12-07T08:49:31;99416.50;;;-0.36;82.62
78317;BME280;67572;50.930;18.276;2023-12-07T08:52:36;99417.22;;;-0.28;82.33
78317;BME280;67572;50.930;18.276;2023-12-07T08:55:51;99426.69;;;-0.23;81.80
78317;BME280;67572;50.930;18.276;2023-12-07T08:58:55;99421.06;;;-0.04;82.42
78317;BME280;67572;50.930;18.276;2023-12-07T09:02:00;99427.94;;;-0.41;82.39
78317;BME280;67572;50.930;18.276;2023-12-07T09:05:06;99436.00;;;-0.53;82.78
78317;BME280;67572;50.930;18.276;2023-12-07T09:08:12;99429.16;;;-0.61;83.11
78317;BME280;67572;50.930;18.276;2023-12-07T09:11:18;99437.44;;;-0.39;83.37
78317;BME280;67572;50.930;18.276;2023-12-07T09:14:23;99429.34;;;-0.25;82.84
78317;BME280;67572;50.930;18.276;2023-12-07T09:17:29;99432.06;;;-0.30;82.53
78317;BME280;67572;50.930;18.276;2023-12-07T09:20:34;99425.09;;;-0.31;82.23
78317;BME280;67572;50.930;18.276;2023-12-07T09:23:40;99437.59;;;-0.45;82.76
78317;BME280;67572;50.930;18.276;2023-12-07T09:26:46;99429.22;;;-0.64;83.06
78317;BME280;67572;50.930;18.276;2023-12-07T09:29:52;99422.09;;;-0.56;83.37
78317;BME280;67572;50.930;18.276;2023-12-07T09:33:15;99418.84;;;-0.67;83.75
78317;BME280;67572;50.930;18.276;2023-12-07T09:36:20;99419.56;;;-0.59;83.68
78317;BME280;67572;50.930;18.276;2023-12-07T09:39:24;99420.84;;;-0.81;84.12
78317;BME280;67572;50.930;18.276;2023-12-07T09:42:32;99421.81;;;-0.87;84.72
78317;BME280;67572;50.930;18.276;2023-12-07T09:45:38;99418.97;;;-0.73;85.01
78317;BME280;67572;50.930;18.276;2023-12-07T09:48:43;99416.59;;;-0.87;84.93
78317;BME280;67572;50.930;18.276;2023-12-07T09:51:47;99416.38;;;-0.76;84.78
78317;BME280;67572;50.930;18.276;2023-12-07T09:54:54;99408.41;;;-0.67;84.99
78317;BME280;67572;50.930;18.276;2023-12-07T09:57:59;99406.47;;;-0.57;84.45
78317;BME280;67572;50.930;18.276;2023-12-07T10:01:04;99412.34;;;-0.44;84.07
78317;BME280;67572;50.930;18.276;2023-12-07T10:04:19;99405.16;;;-0.35;83.85
78317;BME280;67572;50.930;18.276;2023-12-07T10:07:32;99407.69;;;-0.30;83.87
78317;BME280;67572;50.930;18.276;2023-12-07T10:10:36;99411.00;;;-0.23;83.67
78317;BME280;67572;50.930;18.276;2023-12-07T10:13:42;99411.56;;;-0.08;82.99
78317;BME280;67572;50.930;18.276;2023-12-07T10:16:52;99405.78;;;-0.22;82.96
78317;BME280;67572;50.930;18.276;2023-12-07T10:20:09;99404.84;;;-0.19;82.79
78317;BME280;67572;50.930;18.276;2023-12-07T10:23:14;99407.38;;;-0.15;82.39
78317;BME280;67572;50.930;18.276;2023-12-07T10:26:21;99409.78;;;-0.49;82.58
78317;BME280;67572;50.930;18.276;2023-12-07T10:29:28;99400.59;;;-0.25;82.70
78317;BME280;67572;50.930;18.276;2023-12-07T10:32:36;99395.63;;;0.05;82.43
78317;BME280;67572;50.930;18.276;2023-12-07T10:35:42;99395.88;;;0.33;81.84
78317;BME280;67572;50.930;18.276;2023-12-07T10:38:46;99389.59;;;0.40;81.48
78317;BME280;67572;50.930;18.276;2023-12-07T10:41:56;99388.69;;;0.41;80.54
78317;BME280;67572;50.930;18.276;2023-12-07T10:45:06;99390.22;;;0.49;80.75
78317;BME280;67572;50.930;18.276;2023-12-07T10:48:10;99393.78;;;0.47;79.97
78317;BME280;67572;50.930;18.276;2023-12-07T10:51:20;99396.47;;;0.44;80.64
78317;BME280;67572;50.930;18.276;2023-12-07T10:54:35;99399.78;;;0.50;80.26
78317;BME280;67572;50.930;18.276;2023-12-07T10:57:44;99399.63;;;0.58;80.26
78317;BME280;67572;50.930;18.276;2023-12-07T11:00:50;99401.66;;;0.45;80.11
78317;BME280;67572;50.930;18.276;2023-12-07T11:03:55;99399.31;;;0.35;79.85
78317;BME280;67572;50.930;18.276;2023-12-07T11:07:05;99405.06;;;0.49;80.29
78317;BME280;67572;50.930;18.276;2023-12-07T11:10:17;99408.13;;;0.31;80.36
78317;BME280;67572;50.930;18.276;2023-12-07T11:13:25;99403.44;;;0.43;79.81
78317;BME280;67572;50.930;18.276;2023-12-07T11:16:34;99417.78;;;0.27;80.81
78317;BME280;67572;50.930;18.276;2023-12-07T11:19:48;99409.75;;;0.35;80.58
78317;BME280;67572;50.930;18.276;2023-12-07T11:22:51;99414.38;;;0.23;80.96
78317;BME280;67572;50.930;18.276;2023-12-07T11:25:55;99403.81;;;0.28;80.93
78317;BME280;67572;50.930;18.276;2023-12-07T11:28:59;99398.00;;;0.15;81.40
78317;BME280;67572;50.930;18.276;2023-12-07T11:32:05;99403.41;;;0.06;81.67
78317;BME280;67572;50.930;18.276;2023-12-07T11:35:20;99398.19;;;0.06;81.81
78317;BME280;67572;50.930;18.276;2023-12-07T11:38:24;99392.94;;;0.08;82.02
78317;BME280;67572;50.930;18.276;2023-12-07T11:41:29;99400.63;;;0.15;81.88
78317;BME280;67572;50.930;18.276;2023-12-07T11:44:33;99393.16;;;-0.03;82.22
78317;BME280;67572;50.930;18.276;2023-12-07T11:47:38;99397.50;;;-0.02;82.47
78317;BME280;67572;50.930;18.276;2023-12-07T11:51:04;99391.47;;;-0.04;82.48
78317;BME280;67572;50.930;18.276;2023-12-07T11:54:09;99392.63;;;0.21;82.35
78317;BME280;67572;50.930;18.276;2023-12-07T11:57:14;99389.16;;;0.21;81.96
78317;BME280;67572;50.930;18.276;2023-12-07T12:00:19;99390.69;;;0.31;82.05
78317;BME280;67572;50.930;18.276;2023-12-07T12:03:24;99391.59;;;0.28;81.70
78317;BME280;67572;50.930;18.276;2023-12-07T12:06:29;99386.41;;;0.27;81.35
78317;BME280;67572;50.930;18.276;2023-12-07T12:09:34;99386.97;;;0.40;81.05
78317;BME280;67572;50.930;18.276;2023-12-07T12:12:38;99388.84;;;0.35;82.03
78317;BME280;67572;50.930;18.276;2023-12-07T12:15:42;99396.44;;;0.08;82.01
78317;BME280;67572;50.930;18.276;2023-12-07T12:18:48;99394.09;;;-0.06;82.46
78317;BME280;67572;50.930;18.276;2023-12-07T12:21:54;99396.16;;;-0.20;83.56
78317;BME280;67572;50.930;18.276;2023-12-07T12:24:58;99402.31;;;-0.22;83.85
78317;BME280;67572;50.930;18.276;2023-12-07T12:28:03;99396.00;;;-0.12;84.10
78317;BME280;67572;50.930;18.276;2023-12-07T12:31:06;99394.16;;;-0.09;83.90
78317;BME280;67572;50.930;18.276;2023-12-07T12:34:12;99386.47;;;-0.16;83.79
78317;BME280;67572;50.930;18.276;2023-12-07T12:37:16;99387.91;;;0.00;83.41
78317;BME280;67572;50.930;18.276;2023-12-07T12:40:21;99388.81;;;-0.03;82.88
78317;BME280;67572;50.930;18.276;2023-12-07T12:43:25;99391.38;;;-0.01;82.46
78317;BME280;67572;50.930;18.276;2023-12-07T12:46:29;99393.25;;;-0.08;83.15
78317;BME280;67572;50.930;18.276;2023-12-07T12:49:38;99390.63;;;-0.06;82.85
78317;BME280;67572;50.930;18.276;2023-12-07T12:52:43;99402.78;;;-0.04;83.55
78317;BME280;67572;50.930;18.276;2023-12-07T12:55:48;99404.44;;;-0.01;82.90
78317;BME280;67572;50.930;18.276;2023-12-07T12:58:52;99396.81;;;-0.10;83.07
78317;BME280;67572;50.930;18.276;2023-12-07T13:02:05;99399.38;;;-0.07;82.92
78317;BME280;67572;50.930;18.276;2023-12-07T13:05:12;99405.50;;;-0.10;82.80
78317;BME280;67572;50.930;18.276;2023-12-07T13:08:16;99394.84;;;-0.01;82.57
78317;BME280;67572;50.930;18.276;2023-12-07T13:11:20;99395.75;;;-0.02;82.15
78317;BME280;67572;50.930;18.276;2023-12-07T13:14:24;99394.59;;;0.12;81.62
78317;BME280;67572;50.930;18.276;2023-12-07T13:17:29;99396.47;;;0.05;82.30
78317;BME280;67572;50.930;18.276;2023-12-07T13:20:35;99389.44;;;0.07;81.58
78317;BME280;67572;50.930;18.276;2023-12-07T13:23:41;99401.22;;;-0.12;82.99
78317;BME280;67572;50.930;18.276;2023-12-07T13:26:49;99407.97;;;-0.02;83.25
78317;BME280;67572;50.930;18.276;2023-12-07T13:29:54;99417.88;;;-0.18;83.94
78317;BME280;67572;50.930;18.276;2023-12-07T13:32:58;99410.97;;;-0.20;84.09
78317;BME280;67572;50.930;18.276;2023-12-07T13:36:12;99415.53;;;-0.32;84.67
78317;BME280;67572;50.930;18.276;2023-12-07T13:39:20;99416.69;;;-0.45;85.12
78317;BME280;67572;50.930;18.276;2023-12-07T13:42:32;99420.84;;;-0.35;85.39
78317;BME280;67572;50.930;18.276;2023-12-07T13:45:36;99421.78;;;-0.37;85.83
78317;BME280;67572;50.930;18.276;2023-12-07T13:48:39;99422.53;;;-0.32;85.29
78317;BME280;67572;50.930;18.276;2023-12-07T13:51:44;99423.88;;;-0.56;85.87
78317;BME280;67572;50.930;18.276;2023-12-07T13:54:48;99445.94;;;-0.28;85.34
78317;BME280;67572;50.930;18.276;2023-12-07T13:57:55;99435.81;;;-0.43;85.81
78317;BME280;67572;50.930;18.276;2023-12-07T14:00:59;99434.66;;;-0.28;86.05
78317;BME280;67572;50.930;18.276;2023-12-07T14:04:03;99445.53;;;-0.51;86.38
78317;BME280;67572;50.930;18.276;2023-12-07T14:07:14;99447.03;;;-0.39;86.33
78317;BME280;67572;50.930;18.276;2023-12-07T14:10:18;99439.13;;;-0.35;86.49
78317;BME280;67572;50.930;18.276;2023-12-07T14:13:21;99434.53;;;-0.22;86.42
78317;BME280;67572;50.930;18.276;2023-12-07T14:16:27;99431.22;;;-0.30;85.90
78317;BME280;67572;50.930;18.276;2023-12-07T14:19:51;99438.97;;;-0.27;85.31
78317;BME280;67572;50.930;18.276;2023-12-07T14:23:08;99447.44;;;-0.14;85.32
78317;BME280;67572;50.930;18.276;2023-12-07T14:26:12;99448.44;;;-0.21;85.35
78317;BME280;67572;50.930;18.276;2023-12-07T14:29:15;99445.69;;;-0.15;85.68
78317;BME280;67572;50.930;18.276;2023-12-07T14:32:28;99441.97;;;-0.04;85.02
78317;BME280;67572;50.930;18.276;2023-12-07T14:35:32;99444.19;;;0.15;84.61
78317;BME280;67572;50.930;18.276;2023-12-07T14:38:38;99444.69;;;0.32;84.23
78317;BME280;67572;50.930;18.276;2023-12-07T14:41:45;99444.75;;;0.31;84.12
78317;BME280;67572;50.930;18.276;2023-12-07T14:44:50;99448.94;;;0.36;84.03
78317;BME280;67572;50.930;18.276;2023-12-07T14:47:54;99448.03;;;0.39;83.74
78317;BME280;67572;50.930;18.276;2023-12-07T14:50:58;99448.94;;;0.36;83.66
78317;BME280;67572;50.930;18.276;2023-12-07T14:54:04;99448.25;;;0.28;83.79
78317;BME280;67572;50.930;18.276;2023-12-07T14:57:09;99452.88;;;0.17;83.56
78317;BME280;67572;50.930;18.276;2023-12-07T15:00:13;99462.66;;;0.07;83.55
78317;BME280;67572;50.930;18.276;2023-12-07T15:03:16;99462.09;;;-0.09;84.28
78317;BME280;67572;50.930;18.276;2023-12-07T15:06:20;99469.94;;;-0.07;84.55
78317;BME280;67572;50.930;18.276;2023-12-07T15:09:30;99466.44;;;-0.06;84.66
78317;BME280;67572;50.930;18.276;2023-12-07T15:12:33;99469.91;;;-0.06;84.38
78317;BME280;67572;50.930;18.276;2023-12-07T15:15:38;99465.41;;;0.01;84.11
78317;BME280;67572;50.930;18.276;2023-12-07T15:18:42;99466.59;;;-0.15;84.67
78317;BME280;67572;50.930;18.276;2023-12-07T15:21:48;99475.75;;;0.06;84.56
78317;BME280;67572;50.930;18.276;2023-12-07T15:24:54;99480.78;;;-0.27;85.02
78317;BME280;67572;50.930;18.276;2023-12-07T15:27:59;99482.72;;;-0.37;85.88
78317;BME280;67572;50.930;18.276;2023-12-07T15:31:03;99485.59;;;-0.50;86.98
78317;BME280;67572;50.930;18.276;2023-12-07T15:34:08;99485.41;;;-0.41;87.14
78317;BME280;67572;50.930;18.276;2023-12-07T15:37:29;99483.09;;;-0.58;88.22
78317;BME280;67572;50.930;18.276;2023-12-07T15:40:35;99484.16;;;-0.70;88.70
78317;BME280;67572;50.930;18.276;2023-12-07T15:43:38;99485.03;;;-0.68;89.44
78317;BME280;67572;50.930;18.276;2023-12-07T15:46:42;99485.16;;;-0.77;89.96
78317;BME280;67572;50.930;18.276;2023-12-07T15:49:46;99481.56;;;-0.70;89.72
78317;BME280;67572;50.930;18.276;2023-12-07T15:52:50;99485.31;;;-0.86;90.33
78317;BME280;67572;50.930;18.276;2023-12-07T15:55:56;99485.28;;;-0.85;90.38
78317;BME280;67572;50.930;18.276;2023-12-07T15:59:01;99482.69;;;-0.85;91.00
78317;BME280;67572;50.930;18.276;2023-12-07T16:02:06;99484.47;;;-0.87;91.32
78317;BME280;67572;50.930;18.276;2023-12-07T16:05:09;99485.28;;;-0.85;91.03
78317;BME280;67572;50.930;18.276;2023-12-07T16:08:15;99485.97;;;-0.72;91.17
78317;BME280;67572;50.930;18.276;2023-12-07T16:11:20;99490.44;;;-0.80;90.84
78317;BME280;67572;50.930;18.276;2023-12-07T16:14:24;99488.91;;;-0.92;91.35
78317;BME280;67572;50.930;18.276;2023-12-07T16:17:32;99502.19;;;-1.07;91.76